Terminal Aerodrome Forecast
Issued by NWS

Home | Current Version | Previous Version | Text Only | Print | Product List | Glossary On
Versions: 1 2 3 4 5 6 7 8 9 10 11 12 13 14 15 16 17 18 19
000
FTUS43 KIND 292300
TAFBMG
TAF
KBMG 292320Z 3000/3024 18008KT P6SM SCT060
     FM300200 19006KT P6SM SCT080
     FM301200 18005KT P6SM VCSH BKN030
     FM301800 20010KT P6SM VCTS SCT025CB BKN050=

USA.gov is the U.S. government's official web portal to all federal, state and local government web resources and services.